sensor_id;sensor_type;location;lat;lon;timestamp;temperature;humidity
546;DHT22;259;53.304;9.816;2022-08-14T00:00:20;24.80;84.60
546;DHT22;259;53.304;9.816;2022-08-14T00:02:46;24.80;84.60
546;DHT22;259;53.304;9.816;2022-08-14T00:05:15;24.80;84.60
546;DHT22;259;53.304;9.816;2022-08-14T00:07:41;24.80;84.70
546;DHT22;259;53.304;9.816;2022-08-14T00:10:10;24.80;84.70
546;DHT22;259;53.304;9.816;2022-08-14T00:12:38;24.80;84.70
546;DHT22;259;53.304;9.816;2022-08-14T00:15:10;24.80;84.70
546;DHT22;259;53.304;9.816;2022-08-14T00:17:36;24.80;84.70
546;DHT22;259;53.304;9.816;2022-08-14T00:20:03;24.80;84.80
546;DHT22;259;53.304;9.816;2022-08-14T00:22:29;24.70;84.70
546;DHT22;259;53.304;9.816;2022-08-14T00:24:55;24.70;84.60
546;DHT22;259;53.304;9.816;2022-08-14T00:27:20;24.80;84.80
546;DHT22;259;53.304;9.816;2022-08-14T00:29:46;24.70;84.70
546;DHT22;259;53.304;9.816;2022-08-14T00:32:11;24.70;84.70
546;DHT22;259;53.304;9.816;2022-08-14T00:34:38;24.70;84.70
546;DHT22;259;53.304;9.816;2022-08-14T00:37:03;24.70;84.70
546;DHT22;259;53.304;9.816;2022-08-14T00:39:30;24.70;84.70
546;DHT22;259;53.304;9.816;2022-08-14T00:41:56;24.70;84.70
546;DHT22;259;53.304;9.816;2022-08-14T00:44:21;24.70;84.70
546;DHT22;259;53.304;9.816;2022-08-14T00:46:47;24.70;84.80
546;DHT22;259;53.304;9.816;2022-08-14T00:49:14;24.70;84.70
546;DHT22;259;53.304;9.816;2022-08-14T00:51:43;24.70;84.70
546;DHT22;259;53.304;9.816;2022-08-14T00:54:09;24.70;84.70
546;DHT22;259;53.304;9.816;2022-08-14T00:56:35;24.70;84.60
546;DHT22;259;53.304;9.816;2022-08-14T00:59:02;24.70;84.60
546;DHT22;259;53.304;9.816;2022-08-14T01:01:28;24.60;84.50
546;DHT22;259;53.304;9.816;2022-08-14T01:03:54;24.60;84.60
546;DHT22;259;53.304;9.816;2022-08-14T01:06:21;24.60;84.60
546;DHT22;259;53.304;9.816;2022-08-14T01:08:48;24.60;84.60
546;DHT22;259;53.304;9.816;2022-08-14T01:11:14;24.60;84.60
546;DHT22;259;53.304;9.816;2022-08-14T01:13:41;24.60;84.60
546;DHT22;259;53.304;9.816;2022-08-14T01:16:13;24.60;84.70
546;DHT22;259;53.304;9.816;2022-08-14T01:18:39;24.60;84.60
546;DHT22;259;53.304;9.816;2022-08-14T01:21:36;24.60;84.70
546;DHT22;259;53.304;9.816;2022-08-14T01:24:04;24.60;84.70
546;DHT22;259;53.304;9.816;2022-08-14T01:26:32;24.60;84.70
546;DHT22;259;53.304;9.816;2022-08-14T01:29:00;24.60;84.70
546;DHT22;259;53.304;9.816;2022-08-14T01:31:28;24.60;84.70
546;DHT22;259;53.304;9.816;2022-08-14T01:33:56;24.50;84.70
546;DHT22;259;53.304;9.816;2022-08-14T01:36:23;24.50;84.70
546;DHT22;259;53.304;9.816;2022-08-14T01:38:50;24.50;84.70
546;DHT22;259;53.304;9.816;2022-08-14T01:41:20;24.50;84.60
546;DHT22;259;53.304;9.816;2022-08-14T01:46:22;24.50;84.60
546;DHT22;259;53.304;9.816;2022-08-14T01:48:49;24.50;84.70
546;DHT22;259;53.304;9.816;2022-08-14T01:51:17;24.50;84.70
546;DHT22;259;53.304;9.816;2022-08-14T01:53:49;24.50;84.70
546;DHT22;259;53.304;9.816;2022-08-14T01:56:17;24.50;84.70
546;DHT22;259;53.304;9.816;2022-08-14T01:58:47;24.50;84.70
546;DHT22;259;53.304;9.816;2022-08-14T02:01:17;24.50;84.70
546;DHT22;259;53.304;9.816;2022-08-14T02:03:43;24.50;84.60
546;DHT22;259;53.304;9.816;2022-08-14T02:06:10;24.50;84.60
546;DHT22;259;53.304;9.816;2022-08-14T02:08:37;24.40;84.50
546;DHT22;259;53.304;9.816;2022-08-14T02:11:05;24.40;84.50
546;DHT22;259;53.304;9.816;2022-08-14T02:16:20;24.40;84.60
546;DHT22;259;53.304;9.816;2022-08-14T02:18:51;24.40;84.60
546;DHT22;259;53.304;9.816;2022-08-14T02:21:17;24.40;84.60
546;DHT22;259;53.304;9.816;2022-08-14T02:23:45;24.40;84.70
546;DHT22;259;53.304;9.816;2022-08-14T02:28:46;24.40;84.60
546;DHT22;259;53.304;9.816;2022-08-14T02:31:13;24.40;84.70
546;DHT22;259;53.304;9.816;2022-08-14T02:33:40;24.40;84.60
546;DHT22;259;53.304;9.816;2022-08-14T02:36:07;24.40;84.60
546;DHT22;259;53.304;9.816;2022-08-14T02:38:34;24.30;84.60
546;DHT22;259;53.304;9.816;2022-08-14T02:41:00;24.30;84.60
546;DHT22;259;53.304;9.816;2022-08-14T02:43:25;24.30;84.60
546;DHT22;259;53.304;9.816;2022-08-14T02:45:57;24.30;85.30
546;DHT22;259;53.304;9.816;2022-08-14T02:48:22;24.30;84.60
546;DHT22;259;53.304;9.816;2022-08-14T02:50:50;24.30;84.60
546;DHT22;259;53.304;9.816;2022-08-14T02:53:16;24.30;84.60
546;DHT22;259;53.304;9.816;2022-08-14T02:55:42;24.30;84.60
546;DHT22;259;53.304;9.816;2022-08-14T02:58:08;24.30;84.60
546;DHT22;259;53.304;9.816;2022-08-14T03:00:34;24.30;84.60
546;DHT22;259;53.304;9.816;2022-08-14T03:03:03;24.20;84.60
546;DHT22;259;53.304;9.816;2022-08-14T03:05:29;24.30;84.70
546;DHT22;259;53.304;9.816;2022-08-14T03:08:07;24.20;84.50
546;DHT22;259;53.304;9.816;2022-08-14T03:10:34;24.20;84.60
546;DHT22;259;53.304;9.816;2022-08-14T03:12:59;24.30;84.60
546;DHT22;259;53.304;9.816;2022-08-14T03:15:31;24.30;84.60
546;DHT22;259;53.304;9.816;2022-08-14T03:17:58;24.20;84.50
546;DHT22;259;53.304;9.816;2022-08-14T03:20:28;24.20;84.40
546;DHT22;259;53.304;9.816;2022-08-14T03:22:55;24.20;84.60
546;DHT22;259;53.304;9.816;2022-08-14T03:25:24;24.20;84.40
546;DHT22;259;53.304;9.816;2022-08-14T03:27:50;24.20;84.50
546;DHT22;259;53.304;9.816;2022-08-14T03:30:15;24.20;84.40
546;DHT22;259;53.304;9.816;2022-08-14T03:32:41;24.20;84.50
546;DHT22;259;53.304;9.816;2022-08-14T03:35:07;24.20;84.40
546;DHT22;259;53.304;9.816;2022-08-14T03:37:35;24.20;84.40
546;DHT22;259;53.304;9.816;2022-08-14T03:40:01;24.10;84.40
546;DHT22;259;53.304;9.816;2022-08-14T03:42:27;24.20;84.60
546;DHT22;259;53.304;9.816;2022-08-14T03:44:53;24.10;84.40
546;DHT22;259;53.304;9.816;2022-08-14T03:47:18;24.10;84.40
546;DHT22;259;53.304;9.816;2022-08-14T03:49:44;24.10;84.40
546;DHT22;259;53.304;9.816;2022-08-14T03:52:11;24.10;84.40
546;DHT22;259;53.304;9.816;2022-08-14T03:54:38;24.10;84.40
546;DHT22;259;53.304;9.816;2022-08-14T03:57:03;24.10;84.40
546;DHT22;259;53.304;9.816;2022-08-14T03:59:33;24.10;84.40
546;DHT22;259;53.304;9.816;2022-08-14T04:01:59;24.10;84.50
546;DHT22;259;53.304;9.816;2022-08-14T04:04:25;24.10;84.50
546;DHT22;259;53.304;9.816;2022-08-14T04:06:50;24.10;84.50
546;DHT22;259;53.304;9.816;2022-08-14T04:09:16;24.00;84.40
546;DHT22;259;53.304;9.816;2022-08-14T04:11:42;24.00;84.40
546;DHT22;259;53.304;9.816;2022-08-14T04:14:09;24.10;84.60
546;DHT22;259;53.304;9.816;2022-08-14T04:16:35;24.00;84.40
546;DHT22;259;53.304;9.816;2022-08-14T04:19:01;24.10;84.50
546;DHT22;259;53.304;9.816;2022-08-14T04:21:29;24.00;84.40
546;DHT22;259;53.304;9.816;2022-08-14T04:23:56;24.00;84.40
546;DHT22;259;53.304;9.816;2022-08-14T04:26:23;24.00;84.40
546;DHT22;259;53.304;9.816;2022-08-14T04:28:49;24.00;84.40
546;DHT22;259;53.304;9.816;2022-08-14T04:31:20;24.00;84.40
546;DHT22;259;53.304;9.816;2022-08-14T04:33:46;24.00;84.40
546;DHT22;259;53.304;9.816;2022-08-14T04:36:12;24.00;84.40
546;DHT22;259;53.304;9.816;2022-08-14T04:38:38;24.00;84.40
546;DHT22;259;53.304;9.816;2022-08-14T04:41:22;24.00;84.50
546;DHT22;259;53.304;9.816;2022-08-14T04:44:06;23.90;84.30
546;DHT22;259;53.304;9.816;2022-08-14T04:46:34;23.90;84.40
546;DHT22;259;53.304;9.816;2022-08-14T04:49:01;24.00;84.50
546;DHT22;259;53.304;9.816;2022-08-14T04:51:27;23.90;84.30
546;DHT22;259;53.304;9.816;2022-08-14T04:53:54;23.90;84.40
546;DHT22;259;53.304;9.816;2022-08-14T04:56:22;23.90;84.40
546;DHT22;259;53.304;9.816;2022-08-14T04:58:50;23.90;84.40
546;DHT22;259;53.304;9.816;2022-08-14T05:01:22;23.90;84.40
546;DHT22;259;53.304;9.816;2022-08-14T05:03:47;23.90;84.40
546;DHT22;259;53.304;9.816;2022-08-14T05:06:13;23.90;84.40
546;DHT22;259;53.304;9.816;2022-08-14T05:08:39;23.90;84.40
546;DHT22;259;53.304;9.816;2022-08-14T05:11:07;23.90;84.40
546;DHT22;259;53.304;9.816;2022-08-14T05:13:34;23.90;84.50
546;DHT22;259;53.304;9.816;2022-08-14T05:16:01;23.90;84.50
546;DHT22;259;53.304;9.816;2022-08-14T05:18:30;23.90;84.50
546;DHT22;259;53.304;9.816;2022-08-14T05:20:58;23.80;84.40
546;DHT22;259;53.304;9.816;2022-08-14T05:23:30;23.80;84.40
546;DHT22;259;53.304;9.816;2022-08-14T05:25:57;23.90;84.40
546;DHT22;259;53.304;9.816;2022-08-14T05:28:31;23.90;84.40
546;DHT22;259;53.304;9.816;2022-08-14T05:31:02;23.80;84.20
546;DHT22;259;53.304;9.816;2022-08-14T05:33:29;23.80;84.30
546;DHT22;259;53.304;9.816;2022-08-14T05:35:58;23.80;84.40
546;DHT22;259;53.304;9.816;2022-08-14T05:38:29;23.80;84.30
546;DHT22;259;53.304;9.816;2022-08-14T05:41:01;23.80;84.30
546;DHT22;259;53.304;9.816;2022-08-14T05:43:28;23.80;84.30
546;DHT22;259;53.304;9.816;2022-08-14T05:45:53;23.80;84.40
546;DHT22;259;53.304;9.816;2022-08-14T05:48:19;23.80;84.40
546;DHT22;259;53.304;9.816;2022-08-14T05:50:45;23.80;84.40
546;DHT22;259;53.304;9.816;2022-08-14T05:53:11;23.80;84.40
546;DHT22;259;53.304;9.816;2022-08-14T05:55:36;23.80;84.40
546;DHT22;259;53.304;9.816;2022-08-14T05:58:06;23.80;84.50
546;DHT22;259;53.304;9.816;2022-08-14T06:00:35;23.70;84.30
546;DHT22;259;53.304;9.816;2022-08-14T06:03:02;23.80;84.50
546;DHT22;259;53.304;9.816;2022-08-14T06:05:29;23.70;84.40
546;DHT22;259;53.304;9.816;2022-08-14T06:07:59;23.70;84.40
546;DHT22;259;53.304;9.816;2022-08-14T06:10:26;23.70;84.50
546;DHT22;259;53.304;9.816;2022-08-14T06:12:52;23.70;84.40
546;DHT22;259;53.304;9.816;2022-08-14T06:15:17;23.70;84.50
546;DHT22;259;53.304;9.816;2022-08-14T06:20:11;23.70;84.50
546;DHT22;259;53.304;9.816;2022-08-14T06:22:37;23.70;84.50
546;DHT22;259;53.304;9.816;2022-08-14T06:25:03;23.70;84.50
546;DHT22;259;53.304;9.816;2022-08-14T06:27:35;23.70;84.50
546;DHT22;259;53.304;9.816;2022-08-14T06:30:01;23.70;84.50
546;DHT22;259;53.304;9.816;2022-08-14T06:32:27;23.70;84.60
546;DHT22;259;53.304;9.816;2022-08-14T06:34:52;23.70;84.60
546;DHT22;259;53.304;9.816;2022-08-14T06:37:18;23.70;84.60
546;DHT22;259;53.304;9.816;2022-08-14T06:39:44;23.70;84.50
546;DHT22;259;53.304;9.816;2022-08-14T06:42:09;23.70;84.40
546;DHT22;259;53.304;9.816;2022-08-14T06:44:35;23.70;84.40
546;DHT22;259;53.304;9.816;2022-08-14T06:47:01;23.70;84.50
546;DHT22;259;53.304;9.816;2022-08-14T06:49:27;23.70;84.50
546;DHT22;259;53.304;9.816;2022-08-14T06:51:52;23.70;84.50
546;DHT22;259;53.304;9.816;2022-08-14T06:54:18;23.70;84.50
546;DHT22;259;53.304;9.816;2022-08-14T06:56:44;23.70;84.50
546;DHT22;259;53.304;9.816;2022-08-14T06:59:09;23.70;84.50
546;DHT22;259;53.304;9.816;2022-08-14T07:01:35;23.70;84.60
546;DHT22;259;53.304;9.816;2022-08-14T07:04:19;23.70;84.60
546;DHT22;259;53.304;9.816;2022-08-14T07:07:03;23.70;84.60
546;DHT22;259;53.304;9.816;2022-08-14T07:09:28;23.70;84.60
546;DHT22;259;53.304;9.816;2022-08-14T07:11:54;23.70;84.60
546;DHT22;259;53.304;9.816;2022-08-14T07:14:20;23.70;84.60
546;DHT22;259;53.304;9.816;2022-08-14T07:16:45;23.70;84.60
546;DHT22;259;53.304;9.816;2022-08-14T07:19:11;23.70;84.50
546;DHT22;259;53.304;9.816;2022-08-14T07:21:36;23.70;84.50
546;DHT22;259;53.304;9.816;2022-08-14T07:24:03;23.70;84.60
546;DHT22;259;53.304;9.816;2022-08-14T07:26:29;23.70;84.50
546;DHT22;259;53.304;9.816;2022-08-14T07:28:55;23.70;84.40
546;DHT22;259;53.304;9.816;2022-08-14T07:31:20;23.70;84.40
546;DHT22;259;53.304;9.816;2022-08-14T07:33:47;23.70;84.40
546;DHT22;259;53.304;9.816;2022-08-14T07:36:14;23.70;84.30
546;DHT22;259;53.304;9.816;2022-08-14T07:38:40;23.70;84.20
546;DHT22;259;53.304;9.816;2022-08-14T07:41:07;23.80;84.30
546;DHT22;259;53.304;9.816;2022-08-14T07:43:33;23.70;84.30
546;DHT22;259;53.304;9.816;2022-08-14T07:45:59;23.80;84.30
546;DHT22;259;53.304;9.816;2022-08-14T07:48:25;23.80;84.10
546;DHT22;259;53.304;9.816;2022-08-14T07:50:51;23.80;83.90
546;DHT22;259;53.304;9.816;2022-08-14T07:53:17;23.80;83.90
546;DHT22;259;53.304;9.816;2022-08-14T07:55:43;23.80;83.90
546;DHT22;259;53.304;9.816;2022-08-14T07:58:11;23.80;83.90
546;DHT22;259;53.304;9.816;2022-08-14T08:00:36;23.90;83.90
546;DHT22;259;53.304;9.816;2022-08-14T08:03:06;23.90;83.90
546;DHT22;259;53.304;9.816;2022-08-14T08:05:35;23.90;83.80
546;DHT22;259;53.304;9.816;2022-08-14T08:08:02;23.90;83.90
546;DHT22;259;53.304;9.816;2022-08-14T08:10:28;23.90;83.80
546;DHT22;259;53.304;9.816;2022-08-14T08:13:12;23.90;83.80
546;DHT22;259;53.304;9.816;2022-08-14T08:15:56;23.90;83.70
546;DHT22;259;53.304;9.816;2022-08-14T08:18:22;23.90;83.60
546;DHT22;259;53.304;9.816;2022-08-14T08:20:50;23.90;83.50
546;DHT22;259;53.304;9.816;2022-08-14T08:23:18;23.90;83.40
546;DHT22;259;53.304;9.816;2022-08-14T08:25:47;23.90;83.40
546;DHT22;259;53.304;9.816;2022-08-14T08:28:24;24.00;83.30
546;DHT22;259;53.304;9.816;2022-08-14T08:30:57;24.00;83.30
546;DHT22;259;53.304;9.816;2022-08-14T08:33:25;23.90;83.10
546;DHT22;259;53.304;9.816;2022-08-14T08:35:52;24.00;83.10
546;DHT22;259;53.304;9.816;2022-08-14T08:38:22;24.00;83.10
546;DHT22;259;53.304;9.816;2022-08-14T08:40:50;24.00;83.00
546;DHT22;259;53.304;9.816;2022-08-14T08:43:20;24.00;83.10
546;DHT22;259;53.304;9.816;2022-08-14T08:46:11;24.00;83.00
546;DHT22;259;53.304;9.816;2022-08-14T08:48:44;24.00;83.00
546;DHT22;259;53.304;9.816;2022-08-14T08:51:31;24.00;83.00
546;DHT22;259;53.304;9.816;2022-08-14T08:54:03;24.00;83.00
546;DHT22;259;53.304;9.816;2022-08-14T08:56:48;24.00;83.00
546;DHT22;259;53.304;9.816;2022-08-14T08:59:22;24.10;83.10
546;DHT22;259;53.304;9.816;2022-08-14T09:01:51;24.10;83.20
546;DHT22;259;53.304;9.816;2022-08-14T09:04:18;24.10;83.50
546;DHT22;259;53.304;9.816;2022-08-14T09:06:48;24.10;83.80
546;DHT22;259;53.304;9.816;2022-08-14T09:09:23;24.10;83.60
546;DHT22;259;53.304;9.816;2022-08-14T09:11:49;24.10;83.50
546;DHT22;259;53.304;9.816;2022-08-14T09:14:18;24.10;84.40
546;DHT22;259;53.304;9.816;2022-08-14T09:16:44;24.10;83.40
546;DHT22;259;53.304;9.816;2022-08-14T09:19:10;24.10;83.30
546;DHT22;259;53.304;9.816;2022-08-14T09:21:37;24.10;84.00
546;DHT22;259;53.304;9.816;2022-08-14T09:24:05;24.10;83.30
546;DHT22;259;53.304;9.816;2022-08-14T09:26:30;24.10;83.30
546;DHT22;259;53.304;9.816;2022-08-14T09:28:56;24.10;83.40
546;DHT22;259;53.304;9.816;2022-08-14T09:31:22;24.10;83.30
546;DHT22;259;53.304;9.816;2022-08-14T09:36:51;24.20;83.80
546;DHT22;259;53.304;9.816;2022-08-14T09:47:52;24.20;83.80
546;DHT22;259;53.304;9.816;2022-08-14T09:53:05;24.20;83.80
546;DHT22;259;53.304;9.816;2022-08-14T09:55:32;24.20;83.80
546;DHT22;259;53.304;9.816;2022-08-14T09:58:14;24.30;84.10
546;DHT22;259;53.304;9.816;2022-08-14T10:00:51;24.30;84.10
546;DHT22;259;53.304;9.816;2022-08-14T10:03:29;24.30;84.10
546;DHT22;259;53.304;9.816;2022-08-14T10:06:05;24.30;84.10
546;DHT22;259;53.304;9.816;2022-08-14T10:08:44;24.30;84.30
546;DHT22;259;53.304;9.816;2022-08-14T10:11:37;24.30;84.20
546;DHT22;259;53.304;9.816;2022-08-14T10:14:14;24.30;84.30
546;DHT22;259;53.304;9.816;2022-08-14T10:16:47;24.40;84.30
546;DHT22;259;53.304;9.816;2022-08-14T10:19:16;24.40;84.30
546;DHT22;259;53.304;9.816;2022-08-14T10:21:55;24.40;84.30
546;DHT22;259;53.304;9.816;2022-08-14T10:24:23;24.40;84.30
546;DHT22;259;53.304;9.816;2022-08-14T10:26:58;24.40;84.30
546;DHT22;259;53.304;9.816;2022-08-14T10:29:33;24.40;84.30
546;DHT22;259;53.304;9.816;2022-08-14T10:31:59;24.40;84.30
546;DHT22;259;53.304;9.816;2022-08-14T10:34:36;24.40;84.30
546;DHT22;259;53.304;9.816;2022-08-14T10:37:11;24.40;84.30
546;DHT22;259;53.304;9.816;2022-08-14T10:39:39;24.40;84.40
546;DHT22;259;53.304;9.816;2022-08-14T10:42:09;24.40;84.40
546;DHT22;259;53.304;9.816;2022-08-14T10:44:41;24.40;84.50
546;DHT22;259;53.304;9.816;2022-08-14T10:47:10;24.50;84.60
546;DHT22;259;53.304;9.816;2022-08-14T10:49:37;24.50;84.60
546;DHT22;259;53.304;9.816;2022-08-14T10:54:40;24.50;84.60
546;DHT22;259;53.304;9.816;2022-08-14T10:57:23;24.60;84.70
546;DHT22;259;53.304;9.816;2022-08-14T11:00:19;24.60;84.60
546;DHT22;259;53.304;9.816;2022-08-14T11:02:59;24.60;84.80
546;DHT22;259;53.304;9.816;2022-08-14T11:05:25;24.60;84.70
546;DHT22;259;53.304;9.816;2022-08-14T11:10:24;24.70;84.60
546;DHT22;259;53.304;9.816;2022-08-14T11:12:53;24.70;84.60
546;DHT22;259;53.304;9.816;2022-08-14T11:15:27;24.80;84.80
546;DHT22;259;53.304;9.816;2022-08-14T11:17:54;24.80;84.70
546;DHT22;259;53.304;9.816;2022-08-14T11:20:23;24.80;84.90
546;DHT22;259;53.304;9.816;2022-08-14T11:22:51;24.80;84.90
546;DHT22;259;53.304;9.816;2022-08-14T11:25:20;24.90;84.70
546;DHT22;259;53.304;9.816;2022-08-14T11:27:50;24.90;84.70
546;DHT22;259;53.304;9.816;2022-08-14T11:30:18;24.90;84.90
546;DHT22;259;53.304;9.816;2022-08-14T11:32:46;25.00;85.10
546;DHT22;259;53.304;9.816;2022-08-14T11:35:18;25.00;85.00
546;DHT22;259;53.304;9.816;2022-08-14T11:37:49;25.00;84.80
546;DHT22;259;53.304;9.816;2022-08-14T11:40:16;25.00;84.70
546;DHT22;259;53.304;9.816;2022-08-14T11:42:48;25.00;85.10
546;DHT22;259;53.304;9.816;2022-08-14T11:45:14;25.10;84.70
546;DHT22;259;53.304;9.816;2022-08-14T11:47:40;25.10;84.50
546;DHT22;259;53.304;9.816;2022-08-14T11:50:20;25.10;84.40
546;DHT22;259;53.304;9.816;2022-08-14T11:52:47;25.20;84.30
546;DHT22;259;53.304;9.816;2022-08-14T11:55:14;25.20;84.30
546;DHT22;259;53.304;9.816;2022-08-14T11:57:42;25.20;84.20
546;DHT22;259;53.304;9.816;2022-08-14T12:00:13;25.20;84.30
546;DHT22;259;53.304;9.816;2022-08-14T12:02:55;25.20;84.30
546;DHT22;259;53.304;9.816;2022-08-14T12:05:33;25.30;84.40
546;DHT22;259;53.304;9.816;2022-08-14T12:07:59;25.30;84.40
546;DHT22;259;53.304;9.816;2022-08-14T12:10:26;25.30;84.40
546;DHT22;259;53.304;9.816;2022-08-14T12:12:52;25.30;84.40
546;DHT22;259;53.304;9.816;2022-08-14T12:15:33;25.40;84.50
546;DHT22;259;53.304;9.816;2022-08-14T12:18:00;25.40;84.60
546;DHT22;259;53.304;9.816;2022-08-14T12:20:34;25.40;84.60
546;DHT22;259;53.304;9.816;2022-08-14T12:23:05;25.40;84.30
546;DHT22;259;53.304;9.816;2022-08-14T12:25:32;25.50;84.30
546;DHT22;259;53.304;9.816;2022-08-14T12:28:01;25.50;84.00
546;DHT22;259;53.304;9.816;2022-08-14T12:32:56;25.60;84.20
546;DHT22;259;53.304;9.816;2022-08-14T12:35:22;25.70;84.00
546;DHT22;259;53.304;9.816;2022-08-14T12:37:51;25.70;84.70
546;DHT22;259;53.304;9.816;2022-08-14T12:40:18;25.70;83.80
546;DHT22;259;53.304;9.816;2022-08-14T12:42:48;25.70;83.70
546;DHT22;259;53.304;9.816;2022-08-14T12:45:14;25.80;83.90
546;DHT22;259;53.304;9.816;2022-08-14T12:47:40;25.80;83.90
546;DHT22;259;53.304;9.816;2022-08-14T12:50:08;25.80;83.70
546;DHT22;259;53.304;9.816;2022-08-14T12:52:42;25.80;83.60
546;DHT22;259;53.304;9.816;2022-08-14T12:55:13;25.80;83.70
546;DHT22;259;53.304;9.816;2022-08-14T12:57:44;25.80;83.90
546;DHT22;259;53.304;9.816;2022-08-14T13:00:19;25.80;84.00
546;DHT22;259;53.304;9.816;2022-08-14T13:02:49;25.90;84.00
546;DHT22;259;53.304;9.816;2022-08-14T13:05:17;25.90;83.90
546;DHT22;259;53.304;9.816;2022-08-14T13:07:46;25.90;83.90
546;DHT22;259;53.304;9.816;2022-08-14T13:10:13;25.90;83.80
546;DHT22;259;53.304;9.816;2022-08-14T13:12:39;25.90;83.90
546;DHT22;259;53.304;9.816;2022-08-14T13:15:08;25.90;84.20
546;DHT22;259;53.304;9.816;2022-08-14T13:17:40;25.90;83.90
546;DHT22;259;53.304;9.816;2022-08-14T13:20:07;26.00;84.00
546;DHT22;259;53.304;9.816;2022-08-14T13:22:36;26.00;84.00
546;DHT22;259;53.304;9.816;2022-08-14T13:25:03;26.00;83.90
546;DHT22;259;53.304;9.816;2022-08-14T13:27:31;26.00;83.70
546;DHT22;259;53.304;9.816;2022-08-14T13:29:58;26.00;83.80
546;DHT22;259;53.304;9.816;2022-08-14T13:32:25;26.00;83.80
546;DHT22;259;53.304;9.816;2022-08-14T13:34:53;26.00;83.80
546;DHT22;259;53.304;9.816;2022-08-14T13:37:19;26.00;83.80
546;DHT22;259;53.304;9.816;2022-08-14T13:39:49;26.00;84.10
546;DHT22;259;53.304;9.816;2022-08-14T13:42:19;26.00;84.40
546;DHT22;259;53.304;9.816;2022-08-14T13:44:50;26.00;84.20
546;DHT22;259;53.304;9.816;2022-08-14T13:47:18;26.00;84.30
546;DHT22;259;53.304;9.816;2022-08-14T13:49:48;26.00;84.20
546;DHT22;259;53.304;9.816;2022-08-14T13:52:19;26.00;84.10
546;DHT22;259;53.304;9.816;2022-08-14T13:54:47;26.10;84.20
546;DHT22;259;53.304;9.816;2022-08-14T13:57:15;26.10;84.60
546;DHT22;259;53.304;9.816;2022-08-14T13:59:46;26.10;84.70
546;DHT22;259;53.304;9.816;2022-08-14T14:02:13;26.10;84.30
546;DHT22;259;53.304;9.816;2022-08-14T14:04:44;26.20;84.30
546;DHT22;259;53.304;9.816;2022-08-14T14:07:11;26.20;84.10
546;DHT22;259;53.304;9.816;2022-08-14T14:09:42;26.20;84.00
546;DHT22;259;53.304;9.816;2022-08-14T14:12:08;26.20;83.90
546;DHT22;259;53.304;9.816;2022-08-14T14:14:37;26.20;83.70
546;DHT22;259;53.304;9.816;2022-08-14T14:17:07;26.20;84.60
546;DHT22;259;53.304;9.816;2022-08-14T14:19:34;26.30;84.70
546;DHT22;259;53.304;9.816;2022-08-14T14:22:03;26.40;84.60
546;DHT22;259;53.304;9.816;2022-08-14T14:24:31;26.40;84.20
546;DHT22;259;53.304;9.816;2022-08-14T14:27:02;26.50;83.40
546;DHT22;259;53.304;9.816;2022-08-14T14:29:30;26.60;83.70
546;DHT22;259;53.304;9.816;2022-08-14T14:31:58;26.60;83.70
546;DHT22;259;53.304;9.816;2022-08-14T14:34:26;26.70;83.40
546;DHT22;259;53.304;9.816;2022-08-14T14:36:53;26.70;83.30
546;DHT22;259;53.304;9.816;2022-08-14T14:39:24;26.70;83.40
546;DHT22;259;53.304;9.816;2022-08-14T14:41:53;26.70;83.30
546;DHT22;259;53.304;9.816;2022-08-14T14:44:30;26.70;83.40
546;DHT22;259;53.304;9.816;2022-08-14T14:46:57;26.70;83.10
546;DHT22;259;53.304;9.816;2022-08-14T14:49:24;26.80;83.30
546;DHT22;259;53.304;9.816;2022-08-14T14:51:50;26.70;83.40
546;DHT22;259;53.304;9.816;2022-08-14T14:54:16;26.80;83.40
546;DHT22;259;53.304;9.816;2022-08-14T14:56:42;26.90;83.60
546;DHT22;259;53.304;9.816;2022-08-14T14:59:11;26.90;83.30
546;DHT22;259;53.304;9.816;2022-08-14T15:01:37;27.00;83.30
546;DHT22;259;53.304;9.816;2022-08-14T15:04:04;27.10;83.60
546;DHT22;259;53.304;9.816;2022-08-14T15:06:32;27.10;82.80
546;DHT22;259;53.304;9.816;2022-08-14T15:08:58;27.20;82.80
546;DHT22;259;53.304;9.816;2022-08-14T15:11:24;27.20;82.10
546;DHT22;259;53.304;9.816;2022-08-14T15:13:50;27.20;82.00
546;DHT22;259;53.304;9.816;2022-08-14T15:16:16;27.20;82.10
546;DHT22;259;53.304;9.816;2022-08-14T15:18:42;27.20;82.40
546;DHT22;259;53.304;9.816;2022-08-14T15:21:10;27.20;82.80
546;DHT22;259;53.304;9.816;2022-08-14T15:23:35;27.30;82.90
546;DHT22;259;53.304;9.816;2022-08-14T15:26:01;27.30;82.60
546;DHT22;259;53.304;9.816;2022-08-14T15:28:27;27.40;82.10
546;DHT22;259;53.304;9.816;2022-08-14T15:30:54;27.40;82.10
546;DHT22;259;53.304;9.816;2022-08-14T15:33:20;27.40;82.30
546;DHT22;259;53.304;9.816;2022-08-14T15:36:06;27.40;82.40
546;DHT22;259;53.304;9.816;2022-08-14T15:38:32;27.40;82.50
546;DHT22;259;53.304;9.816;2022-08-14T15:40:58;27.30;82.30
546;DHT22;259;53.304;9.816;2022-08-14T15:43:26;27.30;82.40
546;DHT22;259;53.304;9.816;2022-08-14T15:45:53;27.30;82.40
546;DHT22;259;53.304;9.816;2022-08-14T15:48:19;27.30;82.60
546;DHT22;259;53.304;9.816;2022-08-14T15:50:44;27.30;82.80
546;DHT22;259;53.304;9.816;2022-08-14T15:53:11;27.30;82.60
546;DHT22;259;53.304;9.816;2022-08-14T15:55:36;27.30;82.60
546;DHT22;259;53.304;9.816;2022-08-14T15:58:03;27.30;82.80
546;DHT22;259;53.304;9.816;2022-08-14T16:00:33;27.30;82.90
546;DHT22;259;53.304;9.816;2022-08-14T16:03:17;27.20;82.60
546;DHT22;259;53.304;9.816;2022-08-14T16:05:45;27.20;82.60
546;DHT22;259;53.304;9.816;2022-08-14T16:08:11;27.20;82.90
546;DHT22;259;53.304;9.816;2022-08-14T16:10:39;27.20;82.90
546;DHT22;259;53.304;9.816;2022-08-14T16:13:04;27.20;83.00
546;DHT22;259;53.304;9.816;2022-08-14T16:15:30;27.20;83.10
546;DHT22;259;53.304;9.816;2022-08-14T16:17:56;27.20;83.20
546;DHT22;259;53.304;9.816;2022-08-14T16:20:23;27.20;83.30
546;DHT22;259;53.304;9.816;2022-08-14T16:22:53;27.10;83.20
546;DHT22;259;53.304;9.816;2022-08-14T16:25:20;27.20;83.20
546;DHT22;259;53.304;9.816;2022-08-14T16:27:46;27.20;83.30
546;DHT22;259;53.304;9.816;2022-08-14T16:30:14;27.20;83.50
546;DHT22;259;53.304;9.816;2022-08-14T16:32:40;27.10;83.60
546;DHT22;259;53.304;9.816;2022-08-14T16:35:09;27.10;83.60
546;DHT22;259;53.304;9.816;2022-08-14T16:37:40;27.10;83.50
546;DHT22;259;53.304;9.816;2022-08-14T16:40:08;27.10;83.70
546;DHT22;259;53.304;9.816;2022-08-14T16:42:35;27.10;83.80
546;DHT22;259;53.304;9.816;2022-08-14T16:45:03;27.10;83.60
546;DHT22;259;53.304;9.816;2022-08-14T16:47:29;27.10;83.60
546;DHT22;259;53.304;9.816;2022-08-14T16:49:55;27.10;83.80
546;DHT22;259;53.304;9.816;2022-08-14T16:52:22;27.10;83.90
546;DHT22;259;53.304;9.816;2022-08-14T16:54:47;27.10;83.90
546;DHT22;259;53.304;9.816;2022-08-14T16:57:21;27.10;83.90
546;DHT22;259;53.304;9.816;2022-08-14T16:59:48;27.10;84.00
546;DHT22;259;53.304;9.816;2022-08-14T17:02:15;27.10;83.90
546;DHT22;259;53.304;9.816;2022-08-14T17:04:41;27.10;84.10
546;DHT22;259;53.304;9.816;2022-08-14T17:07:13;27.10;84.20
546;DHT22;259;53.304;9.816;2022-08-14T17:09:43;27.10;82.30
546;DHT22;259;53.304;9.816;2022-08-14T17:12:23;27.10;81.30
546;DHT22;259;53.304;9.816;2022-08-14T17:15:00;27.10;79.20